createdAt,value
2022-11-12T00:00:07.739Z,91.37
2022-11-12T00:02:56.208Z,91.61
2022-11-12T00:05:45.492Z,91.66
2022-11-12T00:08:33.604Z,91.64
2022-11-12T00:11:21.701Z,91.42
2022-11-12T00:14:10.239Z,91.57
2022-11-12T00:16:58.470Z,91.76
2022-11-12T00:19:46.876Z,91.75
2022-11-12T00:22:35.013Z,91.71
2022-11-12T00:25:23.401Z,91.50
2022-11-12T00:28:12.480Z,91.90
2022-11-12T00:31:01.559Z,91.97
2022-11-12T00:33:49.690Z,92.25
2022-11-12T00:36:38.044Z,92.40
2022-11-12T00:39:26.455Z,92.37
2022-11-12T00:42:15.215Z,92.33
2022-11-12T00:45:02.743Z,91.18
2022-11-12T00:47:51.135Z,92.67
2022-11-12T00:50:39.096Z,92.94
2022-11-12T00:53:27.532Z,92.59
2022-11-12T00:56:15.646Z,92.48
2022-11-12T00:59:03.828Z,92.55
2022-11-12T01:01:52.199Z,92.86
2022-11-12T01:04:40.535Z,92.60
2022-11-12T01:07:29.596Z,92.51
2022-11-12T01:10:18.064Z,92.55
2022-11-12T01:13:06.427Z,92.90
2022-11-12T01:15:55.037Z,92.64
2022-11-12T01:18:43.849Z,91.86
2022-11-12T01:21:33.842Z,91.66
2022-11-12T01:24:22.048Z,91.50
2022-11-12T01:27:10.184Z,91.77
2022-11-12T01:29:58.226Z,91.79
2022-11-12T01:32:47.451Z,92.03
2022-11-12T01:35:35.353Z,92.10
2022-11-12T01:38:24.277Z,92.33
2022-11-12T01:41:35.150Z,92.26
2022-11-12T01:44:30.295Z,92.45
2022-11-12T01:47:27.111Z,93.10
2022-11-12T01:50:32.190Z,92.96
2022-11-12T01:53:21.402Z,93.15
2022-11-12T01:56:10.566Z,93.34
2022-11-12T01:59:24.753Z,93.62
2022-11-12T02:02:14.180Z,93.60
2022-11-12T02:05:03.652Z,93.76
2022-11-12T02:07:53.939Z,94.07
2022-11-12T02:10:42.542Z,94.37
2022-11-12T02:13:49.467Z,94.63
2022-11-12T02:16:42.294Z,94.88
2022-11-12T02:19:31.088Z,95.20
2022-11-12T02:22:18.974Z,95.43
2022-11-12T02:25:08.086Z,95.53
2022-11-12T02:27:57.686Z,95.73
2022-11-12T02:30:49.338Z,95.82
2022-11-12T02:33:37.454Z,95.93
2022-11-12T02:36:26.119Z,96.00
2022-11-12T02:39:14.089Z,96.15
2022-11-12T02:42:02.359Z,96.14
2022-11-12T02:44:49.931Z,95.32
2022-11-12T02:47:38.364Z,96.22
2022-11-12T02:50:26.796Z,96.40
2022-11-12T02:53:15.173Z,96.55
2022-11-12T02:56:03.790Z,96.71
2022-11-12T02:58:51.925Z,97.03
2022-11-12T03:01:39.545Z,95.96
2022-11-12T03:04:28.094Z,96.54
2022-11-12T03:07:16.336Z,96.65
2022-11-12T03:10:06.070Z,96.76
2022-11-12T03:12:54.629Z,96.89
2022-11-12T03:15:42.945Z,96.90
2022-11-12T03:18:31.314Z,97.12
2022-11-12T03:21:19.932Z,97.22
2022-11-12T03:24:08.923Z,97.17
2022-11-12T03:26:57.128Z,97.34
2022-11-12T03:29:44.917Z,96.48
2022-11-12T03:32:33.159Z,97.21
2022-11-12T03:35:21.121Z,97.34
2022-11-12T03:38:09.815Z,97.44
2022-11-12T03:40:58.135Z,97.39
2022-11-12T03:43:46.436Z,97.33
2022-11-12T03:46:34.523Z,97.36
2022-11-12T03:49:22.682Z,97.25
2022-11-12T03:52:10.248Z,96.39
2022-11-12T03:54:58.604Z,97.04
2022-11-12T03:57:48.891Z,97.02
2022-11-12T04:00:36.681Z,97.01
2022-11-12T04:03:24.644Z,97.09
2022-11-12T04:06:30.981Z,96.98
2022-11-12T04:09:19.316Z,96.97
2022-11-12T04:12:27.749Z,96.96
2022-11-12T04:15:15.903Z,96.98
2022-11-12T04:18:22.025Z,96.83
2022-11-12T04:21:28.718Z,96.67
2022-11-12T04:24:36.883Z,96.53
2022-11-12T04:27:31.945Z,96.48
2022-11-12T04:30:20.614Z,96.27
2022-11-12T04:33:11.187Z,96.27
2022-11-12T04:35:59.802Z,96.42
2022-11-12T04:38:47.875Z,96.35
2022-11-12T04:41:54.205Z,96.37
2022-11-12T04:45:01.040Z,96.52
2022-11-12T04:47:49.880Z,96.42
2022-11-12T04:50:38.431Z,96.25
2022-11-12T04:53:28.496Z,96.05
2022-11-12T04:56:16.322Z,96.03
2022-11-12T04:59:05.045Z,95.93
2022-11-12T05:01:53.581Z,95.84
2022-11-12T05:04:41.701Z,95.88
2022-11-12T05:07:29.450Z,95.26
2022-11-12T05:10:18.000Z,95.74
2022-11-12T05:13:06.423Z,95.63
2022-11-12T05:15:54.601Z,95.71
2022-11-12T05:18:42.623Z,95.76
2022-11-12T05:21:49.580Z,95.87
2022-11-12T05:24:42.863Z,96.04
2022-11-12T05:27:31.282Z,96.22
2022-11-12T05:30:19.659Z,96.31
2022-11-12T05:33:07.950Z,96.31
2022-11-12T05:35:58.568Z,96.57
2022-11-12T05:38:47.214Z,97.36
2022-11-12T05:41:51.395Z,97.11
2022-11-12T05:44:43.655Z,97.38
2022-11-12T05:47:31.927Z,97.21
2022-11-12T05:50:20.146Z,97.17
2022-11-12T05:53:08.234Z,97.39
2022-11-12T05:56:02.105Z,97.48
2022-11-12T05:58:50.450Z,97.81
2022-11-12T06:01:45.984Z,97.80
2022-11-12T06:04:34.007Z,97.82
2022-11-12T06:07:22.202Z,98.04
2022-11-12T06:10:12.805Z,98.19
2022-11-12T06:13:04.571Z,98.45
2022-11-12T06:15:54.151Z,98.64
2022-11-12T06:18:41.979Z,98.75
2022-11-12T06:21:30.261Z,98.85
2022-11-12T06:24:19.176Z,98.97
2022-11-12T06:27:07.323Z,98.92
2022-11-12T06:29:55.697Z,98.98
2022-11-12T06:32:43.928Z,99.03
2022-11-12T06:35:32.262Z,98.98
2022-11-12T06:38:20.935Z,99.03
2022-11-12T06:41:11.663Z,99.12
2022-11-12T06:43:59.870Z,99.15
2022-11-12T06:46:48.120Z,99.17
2022-11-12T06:49:36.259Z,99.17
2022-11-12T06:52:24.848Z,99.31
2022-11-12T06:55:13.817Z,99.31
2022-11-12T06:58:02.212Z,99.50
2022-11-12T07:00:50.400Z,99.76
2022-11-12T07:03:39.523Z,99.69
2022-11-12T07:06:27.386Z,99.70
2022-11-12T07:09:15.671Z,99.54
2022-11-12T07:12:04.121Z,99.66
2022-11-12T07:14:53.682Z,99.51
2022-11-12T07:17:41.511Z,99.41
2022-11-12T07:20:30.060Z,99.36
2022-11-12T07:23:18.550Z,99.37
2022-11-12T07:26:09.950Z,99.37
2022-11-12T07:29:00.744Z,99.23
2022-11-12T07:31:49.432Z,99.53
2022-11-12T07:34:37.346Z,99.39
2022-11-12T07:37:25.941Z,99.38
2022-11-12T07:40:13.873Z,98.94
2022-11-12T07:43:03.124Z,99.57
2022-11-12T07:45:51.047Z,99.43
2022-11-12T07:48:41.276Z,99.48
2022-11-12T07:51:30.951Z,99.45
2022-11-12T07:54:19.285Z,99.42
2022-11-12T07:57:06.844Z,98.88
2022-11-12T07:59:55.144Z,99.25
2022-11-12T08:02:43.405Z,99.41
2022-11-12T08:05:31.652Z,99.44
2022-11-12T08:08:20.010Z,99.52
2022-11-12T08:11:08.357Z,99.61
2022-11-12T08:13:56.232Z,99.63
2022-11-12T08:16:44.790Z,99.61
2022-11-12T08:19:32.615Z,99.57
2022-11-12T08:22:20.982Z,99.79
2022-11-12T08:25:09.352Z,99.71
2022-11-12T08:27:59.921Z,99.66
2022-11-12T08:30:47.894Z,99.58
2022-11-12T08:33:37.047Z,99.63
2022-11-12T08:36:25.595Z,99.62
2022-11-12T08:39:13.570Z,99.59
2022-11-12T08:42:02.522Z,99.65
2022-11-12T08:44:50.747Z,99.67
2022-11-12T08:47:38.949Z,99.52
2022-11-12T08:50:27.716Z,99.68
2022-11-12T08:53:16.624Z,99.51
2022-11-12T08:56:04.863Z,99.45
2022-11-12T08:58:53.163Z,99.43
2022-11-12T09:01:41.584Z,99.31
2022-11-12T09:04:31.204Z,99.16
2022-11-12T09:07:48.196Z,99.09
2022-11-12T09:10:28.268Z,99.01
2022-11-12T09:13:18.350Z,98.66
2022-11-12T09:16:08.893Z,98.71
2022-11-12T09:19:01.391Z,98.42
2022-11-12T09:21:49.535Z,98.04
2022-11-12T09:24:37.907Z,97.98
2022-11-12T09:27:29.050Z,97.72
2022-11-12T09:30:17.978Z,97.10
2022-11-12T09:33:06.423Z,96.99
2022-11-12T09:35:56.620Z,97.19
2022-11-12T09:38:44.845Z,96.71
2022-11-12T09:41:42.399Z,95.96
2022-11-12T09:44:36.673Z,95.19
2022-11-12T09:47:31.607Z,95.54
2022-11-12T09:50:23.229Z,95.55
2022-11-12T09:53:18.927Z,94.41
2022-11-12T09:56:14.654Z,94.14
2022-11-12T09:59:02.672Z,93.69
2022-11-12T10:02:24.602Z,93.91
2022-11-12T10:05:32.488Z,94.39
2022-11-12T10:08:42.242Z,93.24
2022-11-12T10:12:04.521Z,92.96
2022-11-12T10:15:39.025Z,92.56
2022-11-12T10:18:48.030Z,93.33
2022-11-12T10:21:56.996Z,92.11
2022-11-12T10:24:47.067Z,92.26
2022-11-12T10:27:41.744Z,90.13
2022-11-12T10:30:29.984Z,91.73
2022-11-12T10:33:18.360Z,90.54
2022-11-12T10:36:36.853Z,90.39
2022-11-12T10:39:38.426Z,90.67
2022-11-12T10:42:27.096Z,90.13
2022-11-12T10:45:23.538Z,88.07
2022-11-12T10:48:35.675Z,89.32
2022-11-12T10:51:28.309Z,89.59
2022-11-12T10:54:40.856Z,88.38
2022-11-12T10:57:29.434Z,87.84
2022-11-12T11:00:21.208Z,86.13
2022-11-12T11:03:23.122Z,86.09
2022-11-12T11:06:17.732Z,86.13
2022-11-12T11:09:14.999Z,87.54
2022-11-12T11:12:03.894Z,84.35
2022-11-12T11:15:19.571Z,85.02
2022-11-12T11:18:09.844Z,84.08
2022-11-12T11:21:03.735Z,84.90
2022-11-12T11:23:59.879Z,82.78
2022-11-12T11:27:25.861Z,83.62
2022-11-12T11:30:16.840Z,80.66
2022-11-12T11:33:20.217Z,82.08
2022-11-12T11:36:20.079Z,80.33
2022-11-12T11:39:38.502Z,81.75
2022-11-12T11:42:44.550Z,81.04
2022-11-12T11:46:10.798Z,80.86
2022-11-12T11:49:22.923Z,79.86
2022-11-12T11:52:47.906Z,79.04
2022-11-12T11:55:56.085Z,77.45
2022-11-12T11:59:04.498Z,77.86
2022-11-12T12:02:04.462Z,74.34
2022-11-12T12:05:14.853Z,71.98
2022-11-12T12:08:21.127Z,73.16
2022-11-12T12:11:18.177Z,71.15
2022-11-12T12:14:28.573Z,68.95
2022-11-12T12:17:47.296Z,72.34
2022-11-12T12:21:06.524Z,68.94
2022-11-12T12:24:18.503Z,69.83
2022-11-12T12:27:23.326Z,66.58
2022-11-12T12:30:24.823Z,65.92
2022-11-12T12:33:31.166Z,65.26
2022-11-12T12:36:51.122Z,67.52
2022-11-12T12:39:53.334Z,64.36
2022-11-12T12:43:02.350Z,63.30
2022-11-12T12:45:50.713Z,59.15
2022-11-12T12:48:44.562Z,56.48
2022-11-12T12:51:35.050Z,61.65
2022-11-12T12:54:40.918Z,60.68
2022-11-12T12:57:38.948Z,60.98
2022-11-12T13:00:36.264Z,61.36
2022-11-12T13:03:42.946Z,61.32
2022-11-12T13:06:33.559Z,61.81
2022-11-12T13:09:26.792Z,55.55
2022-11-12T13:12:18.935Z,58.88
2022-11-12T13:15:15.091Z,58.25
2022-11-12T13:18:03.198Z,55.93
2022-11-12T13:21:22.051Z,62.16
2022-11-12T13:24:15.356Z,58.06
2022-11-12T13:27:04.607Z,56.34
2022-11-12T13:29:53.915Z,59.62
2022-11-12T13:32:48.447Z,55.99
2022-11-12T13:35:39.367Z,52.97
2022-11-12T13:38:40.665Z,51.19
2022-11-12T13:42:01.733Z,56.05
2022-11-12T13:44:55.835Z,54.25
2022-11-12T13:47:45.178Z,52.71
2022-11-12T13:50:37.884Z,56.84
2022-11-12T13:53:32.385Z,53.57
2022-11-12T13:56:35.689Z,56.63
2022-11-12T13:59:26.578Z,51.81
2022-11-12T14:02:28.338Z,51.33
2022-11-12T14:05:21.883Z,51.76
2022-11-12T14:08:33.465Z,56.86
2022-11-12T14:11:45.900Z,53.46
2022-11-12T14:15:06.442Z,55.96
2022-11-12T14:18:15.950Z,52.65
2022-11-12T14:21:12.948Z,50.77
2022-11-12T14:24:06.456Z,51.36
2022-11-12T14:26:55.153Z,49.24
2022-11-12T14:29:44.378Z,53.82
2022-11-12T14:32:38.154Z,50.27
2022-11-12T14:35:30.617Z,54.63
2022-11-12T14:38:31.247Z,48.56
2022-11-12T14:41:28.495Z,47.45
2022-11-12T14:44:24.610Z,48.64
2022-11-12T14:47:12.855Z,48.51
2022-11-12T14:50:01.331Z,48.54
2022-11-12T14:52:53.455Z,45.68
2022-11-12T14:55:45.601Z,49.32
2022-11-12T14:58:36.367Z,44.84
2022-11-12T15:02:21.656Z,45.13
2022-11-12T15:05:00.188Z,45.41
2022-11-12T15:08:12.325Z,51.12
2022-11-12T15:11:21.685Z,49.22
2022-11-12T15:14:26.135Z,50.85
2022-11-12T15:17:26.286Z,46.04
2022-11-12T15:20:20.877Z,44.84
2022-11-12T15:23:23.361Z,47.74
2022-11-12T15:26:24.152Z,45.37
2022-11-12T15:29:12.363Z,44.30
2022-11-12T15:32:26.670Z,49.56
2022-11-12T15:35:27.104Z,44.88
2022-11-12T15:38:32.674Z,46.52
2022-11-12T15:41:29.828Z,45.36
2022-11-12T15:44:18.462Z,50.37
2022-11-12T15:47:07.211Z,48.86
2022-11-12T15:49:58.791Z,47.15
2022-11-12T15:52:47.245Z,47.33
2022-11-12T15:55:36.559Z,47.57
2022-11-12T15:58:36.820Z,48.17
2022-11-12T16:01:24.886Z,48.00
2022-11-12T16:04:16.241Z,46.47
2022-11-12T16:07:07.930Z,46.19
2022-11-12T16:09:56.270Z,46.37
2022-11-12T16:12:45.947Z,47.45
2022-11-12T16:15:34.333Z,49.15
2022-11-12T16:18:22.787Z,49.95
2022-11-12T16:21:11.423Z,48.77
2022-11-12T16:24:00.035Z,49.91
2022-11-12T16:26:48.108Z,47.72
2022-11-12T16:29:37.299Z,49.30
2022-11-12T16:32:25.096Z,49.58
2022-11-12T16:35:13.326Z,52.38
2022-11-12T16:38:01.215Z,51.09
2022-11-12T16:40:49.445Z,53.42
2022-11-12T16:43:37.663Z,55.18
2022-11-12T16:46:37.254Z,54.42
2022-11-12T16:49:26.034Z,50.99
2022-11-12T16:52:14.004Z,52.31
2022-11-12T16:55:04.813Z,53.07
2022-11-12T16:57:53.412Z,56.08
2022-11-12T17:00:51.305Z,53.67
2022-11-12T17:03:40.044Z,49.32
2022-11-12T17:06:48.353Z,51.90
2022-11-12T17:09:37.224Z,48.83
2022-11-12T17:12:25.295Z,50.44
2022-11-12T17:15:13.563Z,47.40
2022-11-12T17:18:01.911Z,50.92
2022-11-12T17:20:51.444Z,50.48
2022-11-12T17:23:40.823Z,52.77
2022-11-12T17:26:30.410Z,50.91
2022-11-12T17:29:18.545Z,52.45
2022-11-12T17:32:11.289Z,53.49
2022-11-12T17:35:23.552Z,52.68
2022-11-12T17:38:19.841Z,50.71
2022-11-12T17:41:08.989Z,50.01
2022-11-12T17:43:59.831Z,51.51
2022-11-12T17:46:49.783Z,53.19
2022-11-12T17:49:38.176Z,51.71
2022-11-12T17:52:25.853Z,54.72
2022-11-12T17:55:14.441Z,54.77
2022-11-12T17:58:02.359Z,52.66
2022-11-12T18:00:52.818Z,51.37
2022-11-12T18:04:00.578Z,52.85
2022-11-12T18:06:49.022Z,52.10
2022-11-12T18:09:37.533Z,52.22
2022-11-12T18:12:26.501Z,52.06
2022-11-12T18:15:14.981Z,51.45
2022-11-12T18:18:05.468Z,51.37
2022-11-12T18:20:53.407Z,50.94
2022-11-12T18:23:44.697Z,52.46
2022-11-12T18:26:33.733Z,52.11
2022-11-12T18:29:22.381Z,50.43
2022-11-12T18:32:10.875Z,51.60
2022-11-12T18:34:59.548Z,50.31
2022-11-12T18:37:47.889Z,53.00
2022-11-12T18:40:36.134Z,51.49
2022-11-12T18:43:24.630Z,51.65
2022-11-12T18:46:14.016Z,53.35
2022-11-12T18:49:02.121Z,53.43
2022-11-12T18:51:50.936Z,53.16
2022-11-12T18:54:39.085Z,55.03
2022-11-12T18:57:27.656Z,55.63
2022-11-12T19:00:16.886Z,56.50
2022-11-12T19:03:05.601Z,56.55
2022-11-12T19:06:00.310Z,54.49
2022-11-12T19:08:49.015Z,55.61
2022-11-12T19:11:38.286Z,56.66
2022-11-12T19:14:26.984Z,55.42
2022-11-12T19:17:15.242Z,56.22
2022-11-12T19:20:03.783Z,57.11
2022-11-12T19:22:51.896Z,54.94
2022-11-12T19:25:40.364Z,57.71
2022-11-12T19:28:29.699Z,56.50
2022-11-12T19:31:20.830Z,57.21
2022-11-12T19:34:09.148Z,56.59
2022-11-12T19:37:26.656Z,55.90
2022-11-12T19:40:06.695Z,56.72
2022-11-12T19:42:55.087Z,57.48
2022-11-12T19:45:43.467Z,56.34
2022-11-12T19:48:32.309Z,59.57
2022-11-12T19:51:20.545Z,58.61
2022-11-12T19:54:09.598Z,58.21
2022-11-12T19:56:57.567Z,59.38
2022-11-12T19:59:49.075Z,60.30
2022-11-12T20:02:37.519Z,61.06
2022-11-12T20:05:26.283Z,61.81
2022-11-12T20:08:14.539Z,61.43
2022-11-12T20:11:04.241Z,62.57
2022-11-12T20:13:55.063Z,62.50
2022-11-12T20:16:43.097Z,63.34
2022-11-12T20:19:31.544Z,64.08
2022-11-12T20:22:19.863Z,63.70
2022-11-12T20:25:08.359Z,65.27
2022-11-12T20:27:57.025Z,65.02
2022-11-12T20:30:46.270Z,63.42
2022-11-12T20:33:40.853Z,63.92
2022-11-12T20:36:33.380Z,64.95
2022-11-12T20:39:21.547Z,64.82
2022-11-12T20:42:09.798Z,65.87
2022-11-12T20:44:58.086Z,65.06
2022-11-12T20:47:46.005Z,64.98
2022-11-12T20:50:34.558Z,66.26
2022-11-12T20:53:22.812Z,67.17
2022-11-12T20:56:13.667Z,65.81
2022-11-12T20:59:01.807Z,66.95
2022-11-12T21:01:50.392Z,67.11
2022-11-12T21:04:39.107Z,69.07
2022-11-12T21:07:28.312Z,68.38
2022-11-12T21:10:16.881Z,69.23
2022-11-12T21:13:04.932Z,68.99
2022-11-12T21:15:53.909Z,69.79
2022-11-12T21:18:42.707Z,71.69
2022-11-12T21:21:31.769Z,69.58
2022-11-12T21:24:29.846Z,70.57
2022-11-12T21:27:18.131Z,70.54
2022-11-12T21:30:07.098Z,71.63
2022-11-12T21:32:55.978Z,69.72
2022-11-12T21:35:45.402Z,70.72
2022-11-12T21:38:34.131Z,71.23
2022-11-12T21:41:24.638Z,72.35
2022-11-12T21:44:12.690Z,72.09
2022-11-12T21:47:00.836Z,72.22
2022-11-12T21:49:48.664Z,72.34
2022-11-12T21:52:37.308Z,73.00
2022-11-12T21:55:25.436Z,73.40
2022-11-12T21:58:13.709Z,74.29
2022-11-12T22:01:13.783Z,74.38
2022-11-12T22:04:02.549Z,75.21
2022-11-12T22:06:50.671Z,75.70
2022-11-12T22:09:39.010Z,76.01
2022-11-12T22:12:28.259Z,76.63
2022-11-12T22:15:20.059Z,76.12
2022-11-12T22:18:12.014Z,77.04
2022-11-12T22:21:06.356Z,76.82
2022-11-12T22:23:54.203Z,75.17
2022-11-12T22:26:42.916Z,78.72
2022-11-12T22:29:31.402Z,80.10
2022-11-12T22:32:19.712Z,79.67
2022-11-12T22:35:08.500Z,80.05
2022-11-12T22:37:56.705Z,79.90
2022-11-12T22:40:44.669Z,80.36
2022-11-12T22:43:33.899Z,81.12
2022-11-12T22:46:27.409Z,81.80
2022-11-12T22:49:15.218Z,79.38
2022-11-12T22:52:03.438Z,82.67
2022-11-12T22:54:52.870Z,83.02
2022-11-12T22:57:41.056Z,83.68
2022-11-12T23:00:33.826Z,83.94
2022-11-12T23:03:21.973Z,84.98
2022-11-12T23:06:10.322Z,85.16
2022-11-12T23:09:03.150Z,85.64
2022-11-12T23:11:51.861Z,85.49
2022-11-12T23:14:40.822Z,85.15
2022-11-12T23:17:29.745Z,85.39
2022-11-12T23:20:18.189Z,85.57
2022-11-12T23:23:06.520Z,85.37
2022-11-12T23:25:54.627Z,85.78
2022-11-12T23:28:43.244Z,86.53
2022-11-12T23:31:32.486Z,86.70
2022-11-12T23:34:22.040Z,87.12
2022-11-12T23:37:10.066Z,86.70
2022-11-12T23:39:58.003Z,87.06
2022-11-12T23:42:46.617Z,86.73
2022-11-12T23:45:40.227Z,87.03
2022-11-12T23:48:28.465Z,87.17
2022-11-12T23:51:22.204Z,87.68
2022-11-12T23:54:12.135Z,86.84
2022-11-12T23:57:00.617Z,87.11
2022-11-12T23:59:48.833Z,86.68
